Time;durP1;ratioP1;P1;durP2;ratioP2;P2;SDS_P1;SDS_P2;PMS_P1;PMS_P2;Temp;Humidity;BMP_temperature;BMP_pressure;BME280_temperature;BME280_humidity;BME280_pressure;Samples;Min_cycle;Max_cycle;Signal;HPM_P1;HPM_P2
2022/12/29 00:02:08;;;;;;;317.43;295.03;;;8.60;12.20;;;;;;5091716;28;20248;-70
2022/12/29 00:04:34;;;;;;;504.73;469.87;;;8.60;12.10;;;;;;5091692;28;20406;-71
2022/12/29 00:06:59;;;;;;;269.17;250.13;;;8.60;12.20;;;;;;5090622;28;20222;-71
2022/12/29 00:09:26;;;;;;;331.90;309.17;;;8.60;12.20;;;;;;5090608;28;20180;-69
2022/12/29 00:11:52;;;;;;;487.23;453.23;;;8.60;12.10;;;;;;5091593;28;20637;-71
2022/12/29 00:17:02;;;;;;;489.30;457.77;;;8.60;12.10;;;;;;5091971;28;20261;-70
2022/12/29 00:36:27;;;;;;;489.93;459.07;;;8.90;11.50;;;;;;5095425;28;20524;-71
2022/12/29 00:44:26;;;;;;;290.40;270.00;;;9.00;11.50;;;;;;5095292;28;20402;-71
2022/12/29 00:46:52;;;;;;;415.57;387.90;;;8.90;11.70;;;;;;5095304;28;20423;-71
2022/12/29 00:49:32;;;;;;;327.33;305.27;;;8.80;11.70;;;;;;5095188;28;20181;-71
2022/12/29 00:52:02;;;;;;;315.33;294.20;;;8.80;12.00;;;;;;5094929;28;20196;-71
2022/12/29 00:54:31;;;;;;;258.57;240.20;;;8.80;12.20;;;;;;5095044;28;20808;-71
2022/12/29 00:56:56;;;;;;;333.60;310.17;;;8.70;12.20;;;;;;5095133;28;20406;-71
2022/12/29 00:59:23;;;;;;;407.27;379.13;;;8.70;12.20;;;;;;5095186;28;20412;-71
2022/12/29 01:01:52;;;;;;;242.60;224.93;;;8.70;12.40;;;;;;5094638;28;20728;-71
2022/12/29 01:04:18;;;;;;;310.60;288.27;;;8.60;12.40;;;;;;5094871;28;20403;-71
2022/12/29 01:06:43;;;;;;;283.40;263.80;;;8.60;12.50;;;;;;5094870;28;20421;-71
2022/12/29 01:11:54;;;;;;;492.97;457.43;;;8.70;12.50;;;;;;5094509;28;20247;-71
2022/12/29 01:14:20;;;;;;;291.70;271.13;;;8.70;12.30;;;;;;5094786;28;20458;-71
2022/12/29 01:16:46;;;;;;;543.53;506.40;;;8.70;12.30;;;;;;5094774;28;20502;-71
2022/12/29 01:19:12;;;;;;;191.03;177.63;;;8.70;12.10;;;;;;5094632;28;20472;-71
2022/12/29 01:21:38;;;;;;;401.40;373.90;;;8.80;12.30;;;;;;5094225;28;20430;-74
2022/12/29 01:24:04;;;;;;;545.93;508.57;;;8.80;12.40;;;;;;5094583;28;20757;-70
2022/12/29 01:26:29;;;;;;;235.30;217.33;;;8.80;11.90;;;;;;5094410;28;20184;-70
2022/12/29 01:28:55;;;;;;;274.17;254.97;;;8.90;11.90;;;;;;5094653;28;20482;-70
2022/12/29 01:31:20;;;;;;;294.97;274.33;;;8.90;12.30;;;;;;5094753;28;20536;-70
2022/12/29 01:33:46;;;;;;;374.93;348.77;;;8.90;11.70;;;;;;5094200;28;20224;-70
2022/12/29 01:36:15;;;;;;;189.97;175.57;;;9.00;11.70;;;;;;5093591;28;20171;-70
2022/12/29 01:38:41;;;;;;;512.50;476.40;;;9.00;11.70;;;;;;5094526;28;20176;-70
2022/12/29 01:41:09;;;;;;;204.60;189.53;;;9.10;11.60;;;;;;5094296;28;20506;-70
2022/12/29 01:43:40;;;;;;;456.57;424.53;;;9.10;11.60;;;;;;5094395;28;20407;-70
2022/12/29 01:46:14;;;;;;;249.73;231.33;;;9.20;11.60;;;;;;5094227;28;20805;-70
2022/12/29 01:48:41;;;;;;;359.77;334.43;;;9.20;11.40;;;;;;5094437;28;20630;-70
2022/12/29 01:51:07;;;;;;;300.30;279.83;;;9.20;11.30;;;;;;5094363;28;20776;-69
2022/12/29 01:53:34;;;;;;;442.07;411.23;;;9.20;11.40;;;;;;5093633;28;20465;-70
2022/12/29 01:56:06;;;;;;;250.10;232.60;;;9.20;11.30;;;;;;5093935;28;20509;-70
2022/12/29 01:58:37;;;;;;;143.50;132.63;;;9.20;11.30;;;;;;5093796;28;20491;-70
2022/12/29 02:01:04;;;;;;;422.27;391.80;;;9.20;11.50;;;;;;5093682;28;20916;-70
2022/12/29 02:03:32;;;;;;;538.97;504.50;;;9.20;11.20;;;;;;5093347;28;20931;-70
2022/12/29 02:06:33;;;;;;;426.30;395.73;;;9.20;11.40;;;;;;5093733;28;20823;-70
2022/12/29 02:08:59;;;;;;;398.33;372.47;;;9.20;11.60;;;;;;5084378;28;20429;-70
2022/12/29 02:11:27;;;;;;;563.87;522.73;;;9.10;11.20;;;;;;5092241;28;20427;-70
2022/12/29 02:13:53;;;;;;;132.43;121.83;;;9.20;11.50;;;;;;5093246;28;20458;-70
2022/12/29 02:16:37;;;;;;;452.93;422.23;;;9.20;11.60;;;;;;5093454;28;20836;-70
2022/12/29 02:19:34;;;;;;;281.67;263.20;;;9.20;11.30;;;;;;5093470;28;20264;-70
2022/12/29 02:22:14;;;;;;;287.93;267.60;;;9.10;11.40;;;;;;5093124;28;20434;-70
2022/12/29 02:24:48;;;;;;;465.47;432.47;;;9.10;11.70;;;;;;5093480;28;20919;-70
2022/12/29 02:27:25;;;;;;;228.97;212.43;;;9.00;11.80;;;;;;5093268;28;20417;-70
2022/12/29 02:30:08;;;;;;;542.77;505.37;;;9.00;11.90;;;;;;5091954;28;20442;-70
2022/12/29 02:32:51;;;;;;;256.07;236.53;;;9.00;11.90;;;;;;5091410;28;20442;-70
2022/12/29 02:35:17;;;;;;;198.17;183.97;;;9.00;12.20;;;;;;5093368;28;20435;-70
2022/12/29 02:38:10;;;;;;;326.53;304.20;;;8.90;12.00;;;;;;5093151;28;20745;-70
2022/12/29 02:40:43;;;;;;;384.70;359.77;;;8.80;12.10;;;;;;5093333;28;20234;-71
2022/12/29 02:43:32;;;;;;;346.23;322.83;;;8.80;12.30;;;;;;5092792;28;20449;-70
2022/12/29 02:46:30;;;;;;;441.30;409.47;;;8.80;12.30;;;;;;5092680;28;20453;-70
2022/12/29 02:49:43;;;;;;;242.07;225.77;;;8.80;12.30;;;;;;5074973;28;20475;-70
2022/12/29 02:52:24;;;;;;;488.47;455.03;;;8.80;12.30;;;;;;5083186;28;20545;-70
2022/12/29 02:54:52;;;;;;;324.03;302.47;;;8.80;12.10;;;;;;5092809;28;20493;-70
2022/12/29 02:57:21;;;;;;;455.77;425.43;;;8.90;12.30;;;;;;5092789;28;20768;-70
2022/12/29 02:59:51;;;;;;;349.33;323.90;;;8.90;11.70;;;;;;5092714;28;20403;-70
2022/12/29 03:02:25;;;;;;;276.73;258.63;;;8.90;11.70;;;;;;5092452;28;20847;-70
2022/12/29 03:05:18;;;;;;;210.77;195.57;;;8.90;11.30;;;;;;5092749;28;20429;-70
2022/12/29 03:07:52;;;;;;;381.30;355.23;;;9.10;10.50;;;;;;5092494;28;20445;-71
2022/12/29 03:11:04;;;;;;;230.37;213.47;;;9.40;10.00;;;;;;5092664;28;20467;-71
2022/12/29 03:16:43;;;;;;;454.03;422.87;;;9.70;8.60;;;;;;5048883;28;20884;-71
2022/12/29 03:19:30;;;;;;;412.20;384.50;;;9.90;8.10;;;;;;5083519;28;20433;-71
2022/12/29 03:24:50;;;;;;;226.60;209.10;;;10.20;7.40;;;;;;5092331;28;20505;-71
2022/12/29 03:27:22;;;;;;;302.10;280.67;;;10.20;7.00;;;;;;5092436;28;20464;-71
2022/12/29 03:29:55;;;;;;;342.67;316.50;;;10.40;6.40;;;;;;5092669;28;20417;-71
2022/12/29 03:32:25;;;;;;;339.17;312.90;;;10.50;6.40;;;;;;5090400;28;20775;-71
2022/12/29 03:34:53;;;;;;;362.00;336.17;;;10.60;6.30;;;;;;5090180;28;20533;-71
2022/12/29 03:37:23;;;;;;;346.00;322.37;;;10.70;6.20;;;;;;5090190;28;20494;-70
2022/12/29 03:39:49;;;;;;;230.47;211.37;;;10.80;6.00;;;;;;5091857;28;20498;-71
2022/12/29 03:42:19;;;;;;;84.70;70.67;;;10.80;5.80;;;;;;5091722;28;20542;-70
2022/12/29 03:44:46;;;;;;;534.10;496.70;;;10.90;5.80;;;;;;5092080;28;20219;-71
2022/12/29 03:47:13;;;;;;;97.67;79.37;;;10.90;5.50;;;;;;5092091;28;20472;-71
2022/12/29 03:49:39;;;;;;;332.33;306.50;;;10.90;5.80;;;;;;5091994;28;20471;-71
2022/12/29 03:52:05;;;;;;;355.10;328.10;;;11.00;5.90;;;;;;5091670;28;20435;-70
2022/12/29 03:54:31;;;;;;;264.43;243.80;;;11.00;5.50;;;;;;5091940;28;20458;-71
2022/12/29 03:56:56;;;;;;;478.87;445.97;;;11.00;5.90;;;;;;5092019;28;20169;-71
2022/12/29 03:59:22;;;;;;;332.23;307.80;;;10.90;5.80;;;;;;5095247;28;20916;-71
2022/12/29 04:01:48;;;;;;;215.50;197.13;;;10.90;5.90;;;;;;5096318;28;20196;-71
2022/12/29 04:04:13;;;;;;;525.87;488.77;;;10.90;5.90;;;;;;5096024;28;20173;-71
2022/12/29 04:06:39;;;;;;;422.03;391.10;;;10.90;5.90;;;;;;5096033;28;20539;-71
2022/12/29 04:09:05;;;;;;;296.43;275.50;;;10.80;6.60;;;;;;5096202;28;20211;-70
2022/12/29 04:11:30;;;;;;;426.47;394.03;;;10.60;6.80;;;;;;5095892;28;20571;-70
2022/12/29 04:13:56;;;;;;;332.13;306.27;;;10.50;6.60;;;;;;5095690;28;20193;-70
2022/12/29 04:16:21;;;;;;;314.90;291.37;;;10.50;7.30;;;;;;5095795;28;20197;-70
2022/12/29 04:18:47;;;;;;;255.63;236.50;;;10.50;7.30;;;;;;5095769;28;20249;-70
2022/12/29 04:21:13;;;;;;;385.97;357.77;;;10.50;7.20;;;;;;5095713;28;20256;-69
2022/12/29 04:23:39;;;;;;;362.10;336.20;;;10.50;7.30;;;;;;5095464;28;20213;-70
2022/12/29 04:26:08;;;;;;;510.73;474.67;;;10.40;7.40;;;;;;5095776;28;20178;-70
2022/12/29 04:28:34;;;;;;;316.63;293.83;;;10.50;8.00;;;;;;5095562;28;20484;-70
2022/12/29 04:31:00;;;;;;;530.70;494.33;;;10.50;7.10;;;;;;5095520;28;20416;-71
2022/12/29 04:33:25;;;;;;;260.87;240.57;;;10.50;7.20;;;;;;5095087;28;20564;-70
2022/12/29 04:35:54;;;;;;;498.27;462.30;;;10.60;7.40;;;;;;5095465;28;20182;-69
2022/12/29 04:38:22;;;;;;;509.27;473.23;;;10.70;7.00;;;;;;5095481;28;20188;-69
2022/12/29 04:40:47;;;;;;;278.67;257.63;;;10.90;6.70;;;;;;5095460;28;20415;-69
2022/12/29 04:43:13;;;;;;;85.70;68.93;;;10.80;6.80;;;;;;5094872;28;20986;-70
2022/12/29 04:45:48;;;;;;;519.23;482.70;;;10.90;6.60;;;;;;5095289;28;20537;-70
2022/12/29 04:48:14;;;;;;;263.37;242.53;;;11.00;6.50;;;;;;5095855;28;20426;-70
2022/12/29 04:50:41;;;;;;;204.33;186.87;;;10.90;6.40;;;;;;5096157;28;20416;-69
2022/12/29 04:53:07;;;;;;;490.93;455.27;;;11.00;6.10;;;;;;5095414;28;20458;-69
2022/12/29 04:55:33;;;;;;;413.87;383.57;;;11.00;6.00;;;;;;5095734;28;20412;-73
2022/12/29 04:57:58;;;;;;;407.53;378.73;;;10.90;5.90;;;;;;5095485;28;20248;-71
2022/12/29 05:00:24;;;;;;;467.80;434.30;;;10.80;6.70;;;;;;5094204;28;20407;-70
2022/12/29 05:02:49;;;;;;;459.90;426.00;;;10.80;6.30;;;;;;5094856;28;20204;-68
2022/12/29 05:05:16;;;;;;;271.70;251.20;;;10.80;6.70;;;;;;5094559;28;20173;-70
2022/12/29 05:07:42;;;;;;;559.53;519.40;;;10.80;6.70;;;;;;5095980;28;20169;-69
2022/12/29 05:10:08;;;;;;;437.93;405.37;;;10.80;6.90;;;;;;5096091;28;20406;-69
2022/12/29 05:12:35;;;;;;;403.33;374.53;;;10.80;6.60;;;;;;5094362;28;20796;-69
2022/12/29 05:15:02;;;;;;;285.87;264.27;;;10.80;6.60;;;;;;5096753;28;20407;-69
2022/12/29 05:17:28;;;;;;;336.57;311.50;;;10.90;6.50;;;;;;5096279;28;20408;-68
2022/12/29 05:19:54;;;;;;;432.13;399.77;;;10.80;6.60;;;;;;5095426;28;20765;-68
2022/12/29 05:22:19;;;;;;;438.10;406.77;;;10.70;6.40;;;;;;5093748;28;20952;-69
2022/12/29 05:24:45;;;;;;;439.03;406.53;;;10.50;6.70;;;;;;5096212;28;20178;-69
2022/12/29 05:27:10;;;;;;;265.00;244.43;;;10.40;6.80;;;;;;5095552;28;20644;-69
2022/12/29 05:29:36;;;;;;;412.97;383.40;;;10.30;7.20;;;;;;5084506;28;20187;-68
2022/12/29 05:32:01;;;;;;;477.83;444.03;;;10.10;7.60;;;;;;5075837;28;20212;-69
2022/12/29 05:34:27;;;;;;;426.37;396.37;;;10.10;8.30;;;;;;5076072;28;20270;-69
2022/12/29 05:36:52;;;;;;;479.03;444.43;;;10.10;8.10;;;;;;5075035;28;20189;-68
2022/12/29 05:39:18;;;;;;;395.80;366.80;;;10.20;8.10;;;;;;5076033;28;20173;-70
2022/12/29 05:41:43;;;;;;;303.90;282.90;;;10.20;8.10;;;;;;5101497;22;20297;-75
